createdAt,value
2018-06-30T00:00:37.464Z,5.77
2018-06-30T00:03:07.068Z,5.57
2018-06-30T00:05:36.356Z,5.20
2018-06-30T00:08:10.515Z,4.80
2018-06-30T00:10:40.120Z,5.20
2018-06-30T00:13:09.534Z,6.50
2018-06-30T00:15:38.968Z,5.63
2018-06-30T00:18:08.259Z,6.30
2018-06-30T00:20:37.607Z,6.77
2018-06-30T00:23:08.040Z,5.70
2018-06-30T00:25:37.669Z,4.90
2018-06-30T00:28:07.952Z,5.13
2018-06-30T00:30:37.224Z,5.33
2018-06-30T00:33:06.495Z,6.17
2018-06-30T00:35:35.855Z,5.73
2018-06-30T00:38:05.312Z,5.43
2018-06-30T00:40:34.681Z,5.70
2018-06-30T00:43:04.186Z,5.00
2018-06-30T00:45:33.389Z,5.90
2018-06-30T00:48:02.763Z,5.90
2018-06-30T00:50:32.344Z,5.33
2018-06-30T00:53:02.207Z,6.20
2018-06-30T00:55:31.625Z,6.37
2018-06-30T00:58:00.685Z,7.37
2018-06-30T01:00:32.454Z,7.90
2018-06-30T01:03:01.525Z,6.07
2018-06-30T01:05:30.583Z,7.63
2018-06-30T01:07:59.555Z,5.83
2018-06-30T01:10:28.666Z,6.47
2018-06-30T01:12:57.697Z,5.73
2018-06-30T01:15:26.700Z,6.07
2018-06-30T01:17:55.807Z,5.97
2018-06-30T01:20:24.890Z,6.23
2018-06-30T01:22:54.495Z,5.43
2018-06-30T01:25:23.942Z,5.00
2018-06-30T01:27:53.512Z,4.70
2018-06-30T01:30:22.993Z,5.20
2018-06-30T01:32:52.379Z,5.37
2018-06-30T01:35:21.990Z,5.57
2018-06-30T01:37:51.335Z,6.27
2018-06-30T01:40:20.871Z,5.67
2018-06-30T01:42:50.200Z,6.37
2018-06-30T01:45:19.526Z,6.70
2018-06-30T01:47:48.799Z,6.70
2018-06-30T01:50:18.219Z,5.43
2018-06-30T01:52:48.069Z,6.27
2018-06-30T01:55:17.610Z,7.90
2018-06-30T01:57:46.944Z,6.30
2018-06-30T02:00:16.336Z,5.87
2018-06-30T02:02:45.776Z,6.13
2018-06-30T02:05:15.274Z,6.43
2018-06-30T02:07:44.664Z,5.20
2018-06-30T02:10:14.024Z,5.77
2018-06-30T02:12:43.458Z,5.90
2018-06-30T02:15:13.307Z,5.70
2018-06-30T02:17:42.765Z,6.00
2018-06-30T02:20:12.289Z,5.40
2018-06-30T02:22:41.942Z,5.97
2018-06-30T02:25:11.604Z,5.17
2018-06-30T02:27:41.080Z,5.27
2018-06-30T02:30:10.373Z,6.70
2018-06-30T02:32:39.768Z,5.97
2018-06-30T02:35:09.722Z,5.40
2018-06-30T02:37:39.108Z,6.57
2018-06-30T02:40:08.821Z,5.23
2018-06-30T02:42:38.379Z,7.40
2018-06-30T02:45:07.820Z,7.00
2018-06-30T02:47:37.184Z,7.10
2018-06-30T02:50:07.460Z,6.77
2018-06-30T02:52:36.775Z,7.17
2018-06-30T02:55:07.206Z,7.83
2018-06-30T02:57:36.577Z,5.80
2018-06-30T03:00:06.387Z,6.07
2018-06-30T03:02:35.892Z,6.33
2018-06-30T03:05:05.439Z,6.10
2018-06-30T03:07:34.795Z,6.07
2018-06-30T03:10:04.166Z,5.67
2018-06-30T03:12:33.628Z,5.77
2018-06-30T03:15:02.910Z,6.03
2018-06-30T03:17:33.177Z,6.23
2018-06-30T03:20:02.409Z,6.10
2018-06-30T03:22:32.346Z,6.90
2018-06-30T03:25:01.719Z,6.73
2018-06-30T03:27:30.751Z,7.03
2018-06-30T03:29:59.697Z,7.20
2018-06-30T03:32:28.707Z,7.70
2018-06-30T03:34:58.144Z,6.40
2018-06-30T03:37:27.195Z,6.80
2018-06-30T03:40:02.603Z,6.20
2018-06-30T03:42:31.668Z,6.97
2018-06-30T03:45:00.683Z,7.43
2018-06-30T03:47:29.800Z,6.20
2018-06-30T03:49:58.889Z,7.27
2018-06-30T03:52:27.932Z,6.90
2018-06-30T03:54:57.026Z,6.80
2018-06-30T03:57:25.985Z,8.13
2018-06-30T03:59:55.044Z,7.43
2018-06-30T04:02:24.078Z,7.43
2018-06-30T04:04:53.186Z,8.40
2018-06-30T04:07:22.214Z,7.40
2018-06-30T04:09:51.365Z,7.87
2018-06-30T04:12:21.045Z,6.80
2018-06-30T04:14:50.775Z,7.80
2018-06-30T04:17:19.860Z,8.73
2018-06-30T04:19:48.968Z,7.63
2018-06-30T04:22:18.083Z,7.70
2018-06-30T04:24:47.106Z,7.30
2018-06-30T04:27:16.085Z,7.60
2018-06-30T04:29:45.109Z,7.70
2018-06-30T04:32:14.129Z,8.27
2018-06-30T04:34:44.462Z,7.23
2018-06-30T04:37:13.423Z,7.63
2018-06-30T04:39:42.499Z,8.20
2018-06-30T04:42:11.546Z,6.90
2018-06-30T04:44:40.985Z,7.53
2018-06-30T04:47:10.029Z,8.10
2018-06-30T04:49:39.324Z,8.93
2018-06-30T04:52:10.699Z,8.00
2018-06-30T04:54:40.806Z,9.47
2018-06-30T04:57:11.143Z,9.67
2018-06-30T04:59:40.159Z,8.40
2018-06-30T05:02:09.188Z,7.90
2018-06-30T05:04:38.226Z,8.63
2018-06-30T05:07:07.235Z,8.33
2018-06-30T05:09:36.312Z,8.20
2018-06-30T05:12:05.598Z,9.07
2018-06-30T05:14:34.828Z,9.03
2018-06-30T05:17:03.837Z,9.03
2018-06-30T05:19:34.080Z,8.10
2018-06-30T05:22:03.387Z,8.80
2018-06-30T05:24:32.914Z,8.57
2018-06-30T05:27:02.396Z,9.17
2018-06-30T05:29:51.942Z,8.70
2018-06-30T05:32:23.278Z,8.80
2018-06-30T05:34:53.049Z,9.17
2018-06-30T05:37:23.470Z,9.37
2018-06-30T05:39:52.512Z,9.40
2018-06-30T05:42:21.583Z,9.67
2018-06-30T05:44:50.663Z,8.40
2018-06-30T05:47:19.745Z,8.80
2018-06-30T05:49:48.783Z,7.77
2018-06-30T05:52:17.859Z,9.27
2018-06-30T05:54:46.915Z,8.17
2018-06-30T05:57:15.944Z,8.63
2018-06-30T05:59:44.981Z,8.83
2018-06-30T06:02:14.036Z,8.17
2018-06-30T06:04:43.045Z,8.13
2018-06-30T06:07:12.154Z,8.20
2018-06-30T06:09:41.230Z,8.97
2018-06-30T06:12:11.178Z,7.80
2018-06-30T06:14:41.239Z,8.40
2018-06-30T06:17:10.655Z,8.17
2018-06-30T06:19:39.938Z,8.10
2018-06-30T06:22:09.239Z,8.00
2018-06-30T06:24:39.560Z,8.27
2018-06-30T06:27:09.018Z,7.33
2018-06-30T06:29:39.315Z,7.63
2018-06-30T06:32:08.761Z,7.03
2018-06-30T06:34:38.328Z,6.50
2018-06-30T06:37:07.718Z,7.53
2018-06-30T06:39:37.149Z,7.50
2018-06-30T06:42:06.671Z,6.40
2018-06-30T06:44:36.219Z,6.90
2018-06-30T06:47:05.817Z,7.07
2018-06-30T06:49:35.334Z,7.50
2018-06-30T06:52:04.844Z,7.80
2018-06-30T06:54:34.351Z,7.23
2018-06-30T06:57:04.004Z,7.40
2018-06-30T06:59:33.615Z,7.07
2018-06-30T07:02:02.979Z,6.53
2018-06-30T07:04:32.275Z,8.27
2018-06-30T07:07:01.655Z,8.10
2018-06-30T07:09:30.800Z,7.80
2018-06-30T07:11:59.893Z,8.53
2018-06-30T07:14:28.993Z,7.43
2018-06-30T07:16:58.098Z,7.90
2018-06-30T07:19:27.273Z,7.33
2018-06-30T07:21:56.655Z,8.27
2018-06-30T07:24:25.986Z,7.47
2018-06-30T07:26:56.101Z,6.60
2018-06-30T07:29:25.362Z,7.20
2018-06-30T07:31:54.652Z,7.03
2018-06-30T07:34:24.572Z,7.30
2018-06-30T07:36:57.090Z,7.07
2018-06-30T07:39:28.702Z,7.33
2018-06-30T07:41:58.257Z,7.37
2018-06-30T07:44:27.741Z,6.83
2018-06-30T07:46:58.646Z,7.00
2018-06-30T07:49:28.197Z,7.30
2018-06-30T07:51:57.652Z,8.80
2018-06-30T07:54:27.894Z,9.80
2018-06-30T07:56:57.572Z,7.20
2018-06-30T07:59:27.546Z,7.33
2018-06-30T08:01:57.478Z,7.10
2018-06-30T08:04:27.062Z,6.77
2018-06-30T08:06:56.490Z,7.47
2018-06-30T08:09:25.912Z,7.67
2018-06-30T08:11:55.143Z,7.70
2018-06-30T08:14:24.568Z,7.17
2018-06-30T08:16:54.672Z,5.50
2018-06-30T08:19:24.194Z,5.23
2018-06-30T08:21:53.756Z,4.90
2018-06-30T08:24:23.393Z,5.20
2018-06-30T08:26:53.200Z,5.70
2018-06-30T08:29:22.796Z,5.50
2018-06-30T08:31:52.202Z,5.60
2018-06-30T08:34:21.631Z,5.67
2018-06-30T08:36:53.001Z,5.70
2018-06-30T08:39:22.528Z,5.63
2018-06-30T08:41:52.042Z,6.17
2018-06-30T08:44:21.514Z,6.17
2018-06-30T08:46:50.981Z,5.67
2018-06-30T08:49:20.178Z,6.50
2018-06-30T08:51:49.546Z,6.60
2018-06-30T08:54:18.839Z,6.33
2018-06-30T08:56:48.330Z,6.37
2018-06-30T08:59:17.777Z,5.87
2018-06-30T09:01:47.216Z,5.93
2018-06-30T09:04:17.501Z,5.33
2018-06-30T09:06:46.655Z,8.00
2018-06-30T09:09:16.139Z,6.90
2018-06-30T09:11:45.612Z,7.40
2018-06-30T09:14:14.954Z,7.10
2018-06-30T09:16:44.423Z,6.30
2018-06-30T09:19:13.723Z,6.30
2018-06-30T09:21:43.030Z,6.43
2018-06-30T09:24:12.659Z,7.27
2018-06-30T09:26:42.000Z,6.40
2018-06-30T09:29:11.389Z,7.90
2018-06-30T09:31:40.928Z,7.60
2018-06-30T09:34:10.401Z,7.50
2018-06-30T09:36:39.956Z,7.20
2018-06-30T09:39:10.767Z,7.80
2018-06-30T09:41:40.460Z,7.40
2018-06-30T09:44:10.150Z,9.50
2018-06-30T09:46:39.896Z,10.70
2018-06-30T09:49:09.395Z,8.80
2018-06-30T09:51:39.807Z,8.57
2018-06-30T09:54:09.234Z,8.60
2018-06-30T09:56:38.594Z,10.13
2018-06-30T09:59:07.920Z,8.37
2018-06-30T10:01:37.326Z,8.23
2018-06-30T10:04:06.839Z,9.70
2018-06-30T10:06:36.331Z,8.73
2018-06-30T10:09:08.490Z,8.63
2018-06-30T10:11:38.168Z,10.17
2018-06-30T10:14:07.953Z,9.73
2018-06-30T10:16:37.375Z,8.00
2018-06-30T10:19:06.838Z,9.63
2018-06-30T10:21:36.226Z,7.70
2018-06-30T10:24:05.503Z,9.30
2018-06-30T10:26:34.973Z,9.10
2018-06-30T10:29:04.210Z,8.53
2018-06-30T10:31:33.316Z,10.60
2018-06-30T10:34:02.648Z,9.67
2018-06-30T10:36:31.894Z,10.43
2018-06-30T10:39:01.379Z,10.07
2018-06-30T10:41:31.120Z,10.13
2018-06-30T10:44:00.133Z,10.30
2018-06-30T10:46:29.194Z,10.30
2018-06-30T10:48:58.309Z,9.37
2018-06-30T10:51:27.540Z,8.83
2018-06-30T10:53:56.728Z,8.67
2018-06-30T10:56:25.771Z,8.10
2018-06-30T10:58:54.825Z,8.67
2018-06-30T11:01:23.927Z,10.00
2018-06-30T11:03:52.364Z,10.57
2018-06-30T11:06:21.442Z,8.73
2018-06-30T11:08:50.653Z,8.60
2018-06-30T11:11:20.638Z,8.80
2018-06-30T11:13:49.689Z,8.80
2018-06-30T11:16:18.749Z,9.33
2018-06-30T11:18:47.984Z,9.93
2018-06-30T11:21:17.000Z,9.57
2018-06-30T11:23:46.090Z,8.93
2018-06-30T11:26:15.609Z,9.73
2018-06-30T11:28:44.736Z,9.47
2018-06-30T11:31:14.202Z,10.50
2018-06-30T11:33:43.280Z,10.20
2018-06-30T11:36:12.290Z,9.63
2018-06-30T11:38:41.349Z,9.50
2018-06-30T11:41:10.419Z,10.40
2018-06-30T11:43:39.445Z,10.20
2018-06-30T11:46:08.668Z,11.10
2018-06-30T11:48:37.779Z,10.30
2018-06-30T11:51:07.294Z,10.33
2018-06-30T11:53:36.317Z,9.67
2018-06-30T11:56:05.980Z,10.93
2018-06-30T11:58:35.038Z,9.57
2018-06-30T12:01:04.104Z,10.60
2018-06-30T12:03:33.251Z,10.07
2018-06-30T12:06:01.241Z,10.17
2018-06-30T12:08:30.340Z,9.87
2018-06-30T12:10:59.460Z,8.50
2018-06-30T12:13:28.545Z,7.53
2018-06-30T12:15:57.650Z,8.40
2018-06-30T12:18:26.728Z,8.00
2018-06-30T12:20:55.787Z,8.37
2018-06-30T12:23:24.815Z,8.90
2018-06-30T12:25:53.888Z,7.97
2018-06-30T12:28:23.066Z,7.60
2018-06-30T12:30:52.159Z,7.13
2018-06-30T12:33:21.254Z,8.40
2018-06-30T12:35:50.351Z,7.20
2018-06-30T12:38:19.416Z,8.27
2018-06-30T12:40:49.195Z,7.63
2018-06-30T12:43:18.281Z,8.33
2018-06-30T12:45:47.443Z,9.00
2018-06-30T12:48:16.477Z,7.67
2018-06-30T12:50:45.626Z,8.83
2018-06-30T12:53:14.618Z,7.77
2018-06-30T12:55:43.642Z,9.40
2018-06-30T12:58:12.590Z,8.47
2018-06-30T13:00:41.673Z,8.47
2018-06-30T13:03:10.792Z,8.50
2018-06-30T13:05:39.798Z,8.30
2018-06-30T13:08:08.952Z,9.30
2018-06-30T13:10:37.949Z,7.20
2018-06-30T13:13:07.059Z,8.37
2018-06-30T13:15:36.887Z,8.80
2018-06-30T13:18:06.877Z,6.83
2018-06-30T13:20:36.232Z,8.70
2018-06-30T13:23:05.576Z,9.10
2018-06-30T13:25:34.576Z,8.00
2018-06-30T13:28:03.759Z,8.57
2018-06-30T13:30:32.785Z,8.90
2018-06-30T13:33:01.836Z,8.60
2018-06-30T13:35:30.872Z,7.80
2018-06-30T13:38:00.109Z,7.40
2018-06-30T13:40:29.337Z,6.83
2018-06-30T13:42:58.399Z,6.80
2018-06-30T13:45:27.430Z,6.60
2018-06-30T13:47:56.913Z,7.20
2018-06-30T13:50:26.314Z,7.53
2018-06-30T13:52:55.861Z,7.30
2018-06-30T13:55:26.084Z,7.50
2018-06-30T13:57:55.443Z,6.37
2018-06-30T14:00:24.668Z,6.80
2018-06-30T14:02:53.732Z,7.03
2018-06-30T14:05:22.929Z,7.53
2018-06-30T14:07:52.058Z,7.20
2018-06-30T14:10:21.286Z,7.40
2018-06-30T14:12:50.357Z,7.70
2018-06-30T14:15:19.467Z,7.50
2018-06-30T14:17:48.641Z,7.77
2018-06-30T14:20:17.675Z,8.93
2018-06-30T14:22:46.794Z,7.90
2018-06-30T14:25:15.896Z,8.43
2018-06-30T14:27:45.015Z,8.30
2018-06-30T14:30:14.657Z,8.03
2018-06-30T14:32:43.846Z,8.03
2018-06-30T14:35:12.900Z,7.80
2018-06-30T14:37:42.004Z,9.40
2018-06-30T14:40:11.062Z,8.07
2018-06-30T14:42:40.205Z,7.67
2018-06-30T14:45:09.346Z,8.40
2018-06-30T14:47:38.832Z,7.60
2018-06-30T14:50:08.594Z,8.50
2018-06-30T14:52:37.967Z,9.30
2018-06-30T14:55:08.032Z,8.90
2018-06-30T14:57:37.092Z,8.93
2018-06-30T15:00:07.386Z,9.00
2018-06-30T15:02:37.103Z,9.17
2018-06-30T15:05:07.096Z,9.27
2018-06-30T15:07:36.366Z,9.03
2018-06-30T15:10:06.009Z,9.20
2018-06-30T15:12:35.269Z,9.27
2018-06-30T15:15:04.509Z,8.50
2018-06-30T15:17:33.480Z,8.27
2018-06-30T15:20:02.544Z,7.50
2018-06-30T15:22:31.974Z,6.80
2018-06-30T15:25:01.025Z,5.83
2018-06-30T15:27:30.045Z,8.27
2018-06-30T15:29:59.077Z,8.17
2018-06-30T15:32:28.174Z,6.50
2018-06-30T15:34:57.240Z,8.30
2018-06-30T15:37:26.262Z,6.83
2018-06-30T15:39:55.725Z,6.90
2018-06-30T15:42:25.001Z,7.20
2018-06-30T15:44:54.106Z,8.00
2018-06-30T15:47:23.152Z,7.07
2018-06-30T15:49:52.292Z,6.80
2018-06-30T15:52:21.559Z,8.03
2018-06-30T15:54:50.816Z,7.37
2018-06-30T15:57:19.944Z,7.20
2018-06-30T15:59:48.974Z,7.60
2018-06-30T16:02:18.030Z,7.60
2018-06-30T16:04:47.080Z,7.40
2018-06-30T16:07:16.154Z,7.70
2018-06-30T16:09:45.511Z,7.80
2018-06-30T16:12:14.984Z,7.27
2018-06-30T16:14:44.307Z,8.60
2018-06-30T16:17:13.527Z,7.70
2018-06-30T16:19:43.006Z,7.60
2018-06-30T16:22:12.401Z,7.93
2018-06-30T16:24:41.768Z,9.70
2018-06-30T16:27:11.219Z,8.80
2018-06-30T16:29:40.637Z,8.73
2018-06-30T16:32:09.642Z,8.53
2018-06-30T16:34:39.229Z,8.70
2018-06-30T16:37:08.591Z,9.13
2018-06-30T16:39:37.959Z,8.80
2018-06-30T16:42:08.301Z,9.20
2018-06-30T16:44:37.977Z,9.23
2018-06-30T16:47:07.880Z,8.90
2018-06-30T16:49:37.249Z,8.17
2018-06-30T16:52:06.859Z,8.80
2018-06-30T16:54:36.277Z,9.53
2018-06-30T16:57:05.559Z,8.20
2018-06-30T16:59:35.093Z,8.87
2018-06-30T17:02:04.433Z,8.80
2018-06-30T17:04:33.856Z,9.57
2018-06-30T17:07:03.220Z,8.10
2018-06-30T17:09:33.419Z,8.13
2018-06-30T17:12:06.861Z,9.13
2018-06-30T17:14:36.668Z,7.97
2018-06-30T17:17:07.427Z,9.70
2018-06-30T17:19:38.066Z,8.57
2018-06-30T17:22:07.786Z,8.60
2018-06-30T17:24:37.136Z,8.20
2018-06-30T17:27:06.508Z,8.17
2018-06-30T17:29:36.378Z,8.50
2018-06-30T17:32:05.956Z,9.73
2018-06-30T17:34:35.430Z,7.80
2018-06-30T17:37:04.924Z,8.03
2018-06-30T17:39:34.328Z,8.20
2018-06-30T17:42:03.861Z,8.00
2018-06-30T17:44:33.406Z,9.00
2018-06-30T17:47:02.871Z,7.70
2018-06-30T17:49:32.377Z,8.30
2018-06-30T17:52:01.846Z,8.20
2018-06-30T17:54:31.592Z,7.73
2018-06-30T17:57:01.995Z,7.97
2018-06-30T17:59:31.782Z,8.23
2018-06-30T18:02:01.758Z,8.90
2018-06-30T18:04:32.597Z,8.33
2018-06-30T18:07:03.277Z,8.50
2018-06-30T18:09:33.044Z,9.00
2018-06-30T18:12:02.192Z,8.93
2018-06-30T18:14:31.250Z,8.70
2018-06-30T18:17:00.923Z,8.73
2018-06-30T18:19:30.130Z,7.83
2018-06-30T18:21:59.643Z,8.10
2018-06-30T18:24:29.021Z,8.27
2018-06-30T18:26:58.415Z,7.83
2018-06-30T18:29:27.814Z,8.40
2018-06-30T18:31:57.004Z,9.07
2018-06-30T18:34:26.401Z,7.13
2018-06-30T18:36:55.710Z,9.03
2018-06-30T18:39:25.216Z,8.37
2018-06-30T18:41:54.730Z,8.23
2018-06-30T18:44:24.150Z,7.60
2018-06-30T18:46:53.647Z,10.50
2018-06-30T18:49:24.581Z,11.07
2018-06-30T18:51:54.795Z,9.03
2018-06-30T18:54:24.196Z,8.67
2018-06-30T18:56:53.480Z,8.17
2018-06-30T18:59:22.935Z,8.27
2018-06-30T19:01:52.299Z,6.90
2018-06-30T19:04:22.644Z,7.30
2018-06-30T19:06:51.962Z,7.83
2018-06-30T19:09:21.752Z,7.53
2018-06-30T19:11:51.769Z,7.60
2018-06-30T19:14:21.190Z,7.20
2018-06-30T19:16:50.821Z,7.37
2018-06-30T19:19:20.179Z,8.40
2018-06-30T19:21:49.520Z,8.13
2018-06-30T19:24:18.764Z,8.60
2018-06-30T19:26:48.176Z,7.73
2018-06-30T19:29:19.164Z,7.13
2018-06-30T19:31:48.640Z,7.93
2018-06-30T19:34:19.495Z,7.77
2018-06-30T19:36:48.745Z,8.13
2018-06-30T19:39:18.389Z,7.03
2018-06-30T19:41:47.898Z,8.93
2018-06-30T19:44:17.387Z,6.67
2018-06-30T19:46:47.272Z,7.60
2018-06-30T19:49:16.675Z,7.03
2018-06-30T19:51:46.247Z,7.57
2018-06-30T19:54:15.500Z,6.30
2018-06-30T19:56:44.847Z,7.20
2018-06-30T19:59:14.096Z,7.00
2018-06-30T20:01:43.481Z,6.90
2018-06-30T20:04:12.879Z,6.40
2018-06-30T20:06:42.456Z,6.83
2018-06-30T20:09:11.785Z,6.00
2018-06-30T20:11:41.097Z,6.43
2018-06-30T20:14:10.563Z,6.60
2018-06-30T20:16:39.905Z,5.70
2018-06-30T20:19:09.800Z,6.77
2018-06-30T20:21:39.238Z,5.77
2018-06-30T20:24:09.618Z,6.10
2018-06-30T20:26:38.921Z,6.57
2018-06-30T20:29:08.315Z,6.20
2018-06-30T20:31:37.648Z,5.50
2018-06-30T20:34:08.928Z,5.00
2018-06-30T20:36:38.981Z,5.23
2018-06-30T20:39:09.814Z,5.43
2018-06-30T20:41:39.817Z,5.40
2018-06-30T20:44:09.836Z,4.83
2018-06-30T20:46:39.229Z,4.50
2018-06-30T20:49:08.719Z,5.33
2018-06-30T20:51:38.544Z,5.70
2018-06-30T20:54:08.071Z,5.57
2018-06-30T20:56:37.433Z,5.40
2018-06-30T20:59:07.279Z,4.93
2018-06-30T21:01:36.674Z,4.40
2018-06-30T21:04:06.546Z,5.00
2018-06-30T21:06:36.126Z,5.50
2018-06-30T21:09:09.571Z,4.23
2018-06-30T21:11:39.095Z,4.37
2018-06-30T21:14:08.640Z,4.43
2018-06-30T21:16:39.224Z,4.80
2018-06-30T21:19:08.896Z,4.53
2018-06-30T21:21:38.605Z,3.97
2018-06-30T21:24:08.087Z,4.17
2018-06-30T21:26:38.111Z,5.33
2018-06-30T21:29:08.361Z,4.33
2018-06-30T21:31:37.831Z,4.40
2018-06-30T21:34:07.118Z,4.27
2018-06-30T21:36:38.050Z,4.70
2018-06-30T21:39:10.527Z,4.77
2018-06-30T21:41:39.942Z,5.03
2018-06-30T21:44:09.481Z,4.87
2018-06-30T21:46:38.946Z,4.17
2018-06-30T21:49:08.182Z,4.40
2018-06-30T21:51:37.544Z,4.17
2018-06-30T21:54:06.900Z,4.33
2018-06-30T21:56:36.392Z,4.67
2018-06-30T21:59:05.599Z,3.63
2018-06-30T22:01:36.102Z,4.40
2018-06-30T22:04:05.669Z,5.20
2018-06-30T22:06:34.993Z,5.23
2018-06-30T22:09:04.891Z,3.57
2018-06-30T22:11:34.909Z,3.60
2018-06-30T22:14:04.440Z,4.90
2018-06-30T22:16:33.981Z,3.50
2018-06-30T22:19:04.113Z,4.13
2018-06-30T22:21:33.516Z,3.83
2018-06-30T22:24:02.934Z,3.30
2018-06-30T22:26:32.774Z,4.53
2018-06-30T22:29:02.195Z,4.10
2018-06-30T22:31:32.185Z,3.97
2018-06-30T22:34:01.577Z,3.67
2018-06-30T22:36:30.991Z,3.50
2018-06-30T22:39:00.516Z,3.90
2018-06-30T22:41:29.994Z,3.33
2018-06-30T22:43:59.605Z,4.87
2018-06-30T22:46:28.893Z,3.93
2018-06-30T22:48:59.029Z,3.87
2018-06-30T22:51:28.361Z,4.40
2018-06-30T22:53:57.984Z,3.20
2018-06-30T22:56:27.237Z,3.27
2018-06-30T22:58:56.804Z,3.30
2018-06-30T23:01:26.070Z,2.40
2018-06-30T23:03:55.474Z,2.90
2018-06-30T23:06:24.778Z,3.63
2018-06-30T23:08:54.744Z,3.83
2018-06-30T23:11:25.157Z,3.37
2018-06-30T23:13:54.653Z,3.17
2018-06-30T23:16:23.902Z,2.90
2018-06-30T23:18:53.183Z,3.17
2018-06-30T23:21:22.563Z,2.20
2018-06-30T23:23:51.786Z,2.90
2018-06-30T23:26:21.124Z,3.00
2018-06-30T23:28:50.410Z,2.73
2018-06-30T23:31:19.708Z,2.30
2018-06-30T23:33:49.010Z,3.20
2018-06-30T23:36:18.346Z,2.20
2018-06-30T23:38:47.621Z,2.90
2018-06-30T23:41:16.844Z,2.40
2018-06-30T23:43:46.323Z,2.53
2018-06-30T23:46:15.753Z,2.07
2018-06-30T23:48:45.216Z,2.37
2018-06-30T23:51:14.621Z,3.00
2018-06-30T23:53:43.917Z,2.93
2018-06-30T23:56:14.073Z,3.17
2018-06-30T23:58:44.320Z,2.47
